In Rescue
 
Open Full Screen Window  High Contrast Mode
Wind Gusting 15 knots
08
July 22, 2019 5:29 PM EDT
Weather Information
Wind Direction
  010 °
Wind Speed
  08 kt (9 mph)
Wind Gust
  15 kt (17 mph)
Variable Wind
350°
050°
Altimeter
29.95 in
Visibility
10 SM
Temperature
23° C
73° F
Dewpoint
12° C
54° F
Humidity
50%
Sky Condition
Scattered @ 5,000 ft
VFR

METAR KPHN 222129Z AUTO 01008G15KT 350V050 10SM SCT050 23/12 A2995 RMK AO2

FAA Disclaimer: The data displayed is for advisory purposes only and is not to be used for flight planning or operations.